sensor_id;sensor_type;location;lat;lon;timestamp;temperature;humidity
20463;DHT22;10390;53.566;9.980;2023-04-23T00:00:40;26.40;1.00
20463;DHT22;10390;53.566;9.980;2023-04-23T00:03:07;26.30;1.00
20463;DHT22;10390;53.566;9.980;2023-04-23T00:05:35;26.40;1.00
20463;DHT22;10390;53.566;9.980;2023-04-23T00:08:01;26.40;1.00
20463;DHT22;10390;53.566;9.980;2023-04-23T00:10:27;26.40;1.00
20463;DHT22;10390;53.566;9.980;2023-04-23T00:12:53;26.40;1.00
20463;DHT22;10390;53.566;9.980;2023-04-23T00:15:19;26.40;1.00
20463;DHT22;10390;53.566;9.980;2023-04-23T00:17:46;26.40;1.00
20463;DHT22;10390;53.566;9.980;2023-04-23T00:20:12;26.40;1.00
20463;DHT22;10390;53.566;9.980;2023-04-23T00:22:38;26.30;1.00
20463;DHT22;10390;53.566;9.980;2023-04-23T00:25:04;26.30;1.00
20463;DHT22;10390;53.566;9.980;2023-04-23T00:27:30;26.30;1.00
20463;DHT22;10390;53.566;9.980;2023-04-23T00:29:56;26.30;1.00
20463;DHT22;10390;53.566;9.980;2023-04-23T00:32:21;26.30;1.00
20463;DHT22;10390;53.566;9.980;2023-04-23T00:34:47;26.30;1.00
20463;DHT22;10390;53.566;9.980;2023-04-23T00:37:16;26.30;1.00
20463;DHT22;10390;53.566;9.980;2023-04-23T00:39:42;26.30;1.00
20463;DHT22;10390;53.566;9.980;2023-04-23T00:42:08;26.30;1.00
20463;DHT22;10390;53.566;9.980;2023-04-23T00:44:40;26.30;1.00
20463;DHT22;10390;53.566;9.980;2023-04-23T00:47:09;26.30;1.00
20463;DHT22;10390;53.566;9.980;2023-04-23T00:49:36;26.30;1.00
20463;DHT22;10390;53.566;9.980;2023-04-23T00:52:02;26.30;1.00
20463;DHT22;10390;53.566;9.980;2023-04-23T00:54:28;26.30;1.00
20463;DHT22;10390;53.566;9.980;2023-04-23T00:56:54;26.30;1.00
20463;DHT22;10390;53.566;9.980;2023-04-23T00:59:24;26.30;1.00
20463;DHT22;10390;53.566;9.980;2023-04-23T01:01:50;26.30;1.00
20463;DHT22;10390;53.566;9.980;2023-04-23T01:04:16;26.30;1.00
20463;DHT22;10390;53.566;9.980;2023-04-23T01:06:43;26.30;1.00
20463;DHT22;10390;53.566;9.980;2023-04-23T01:09:11;26.30;1.00
20463;DHT22;10390;53.566;9.980;2023-04-23T01:11:39;26.20;1.00
20463;DHT22;10390;53.566;9.980;2023-04-23T01:14:07;26.30;1.00
20463;DHT22;10390;53.566;9.980;2023-04-23T01:16:33;26.20;1.00
20463;DHT22;10390;53.566;9.980;2023-04-23T01:18:59;26.30;1.00
20463;DHT22;10390;53.566;9.980;2023-04-23T01:21:27;26.20;1.00
20463;DHT22;10390;53.566;9.980;2023-04-23T01:23:54;26.20;1.00
20463;DHT22;10390;53.566;9.980;2023-04-23T01:26:20;26.20;1.00
20463;DHT22;10390;53.566;9.980;2023-04-23T01:28:46;26.20;1.00
20463;DHT22;10390;53.566;9.980;2023-04-23T01:31:12;26.20;1.00
20463;DHT22;10390;53.566;9.980;2023-04-23T01:33:41;26.20;1.00
20463;DHT22;10390;53.566;9.980;2023-04-23T01:36:07;26.20;1.00
20463;DHT22;10390;53.566;9.980;2023-04-23T01:38:33;26.20;1.00
20463;DHT22;10390;53.566;9.980;2023-04-23T01:41:00;26.20;1.00
20463;DHT22;10390;53.566;9.980;2023-04-23T01:43:27;26.20;1.00
20463;DHT22;10390;53.566;9.980;2023-04-23T01:45:52;26.20;1.00
20463;DHT22;10390;53.566;9.980;2023-04-23T01:48:18;26.20;1.00
20463;DHT22;10390;53.566;9.980;2023-04-23T01:50:44;26.20;1.00
20463;DHT22;10390;53.566;9.980;2023-04-23T01:53:09;26.20;1.00
20463;DHT22;10390;53.566;9.980;2023-04-23T01:55:38;26.20;1.00
20463;DHT22;10390;53.566;9.980;2023-04-23T01:58:05;26.20;1.00
20463;DHT22;10390;53.566;9.980;2023-04-23T02:00:31;26.20;1.00
20463;DHT22;10390;53.566;9.980;2023-04-23T02:02:56;26.20;1.00
20463;DHT22;10390;53.566;9.980;2023-04-23T02:05:23;26.20;1.00
20463;DHT22;10390;53.566;9.980;2023-04-23T02:07:51;26.20;1.00
20463;DHT22;10390;53.566;9.980;2023-04-23T02:10:17;26.20;1.00
20463;DHT22;10390;53.566;9.980;2023-04-23T02:12:43;26.20;1.00
20463;DHT22;10390;53.566;9.980;2023-04-23T02:15:10;26.20;1.00
20463;DHT22;10390;53.566;9.980;2023-04-23T02:17:36;26.20;1.00
20463;DHT22;10390;53.566;9.980;2023-04-23T02:20:05;26.10;1.00
20463;DHT22;10390;53.566;9.980;2023-04-23T02:22:31;26.20;1.00
20463;DHT22;10390;53.566;9.980;2023-04-23T02:24:56;26.20;1.00
20463;DHT22;10390;53.566;9.980;2023-04-23T02:27:23;26.10;1.00
20463;DHT22;10390;53.566;9.980;2023-04-23T02:29:48;26.20;1.00
20463;DHT22;10390;53.566;9.980;2023-04-23T02:32:14;26.10;1.00
20463;DHT22;10390;53.566;9.980;2023-04-23T02:34:40;26.20;1.00
20463;DHT22;10390;53.566;9.980;2023-04-23T02:37:05;26.10;1.00
20463;DHT22;10390;53.566;9.980;2023-04-23T02:39:31;26.10;1.00
20463;DHT22;10390;53.566;9.980;2023-04-23T02:41:58;26.10;1.00
20463;DHT22;10390;53.566;9.980;2023-04-23T02:44:24;26.20;1.00
20463;DHT22;10390;53.566;9.980;2023-04-23T02:46:50;26.10;1.00
20463;DHT22;10390;53.566;9.980;2023-04-23T02:49:16;26.10;1.00
20463;DHT22;10390;53.566;9.980;2023-04-23T02:51:44;26.10;1.00
20463;DHT22;10390;53.566;9.980;2023-04-23T02:54:10;26.10;1.00
20463;DHT22;10390;53.566;9.980;2023-04-23T02:56:36;26.10;1.00
20463;DHT22;10390;53.566;9.980;2023-04-23T02:59:02;26.10;1.00
20463;DHT22;10390;53.566;9.980;2023-04-23T03:01:27;26.10;1.00
20463;DHT22;10390;53.566;9.980;2023-04-23T03:03:53;26.10;1.00
20463;DHT22;10390;53.566;9.980;2023-04-23T03:06:19;26.10;1.00
20463;DHT22;10390;53.566;9.980;2023-04-23T03:08:44;26.10;1.00
20463;DHT22;10390;53.566;9.980;2023-04-23T03:11:10;26.10;1.00
20463;DHT22;10390;53.566;9.980;2023-04-23T03:13:36;26.10;1.00
20463;DHT22;10390;53.566;9.980;2023-04-23T03:16:01;26.10;1.00
20463;DHT22;10390;53.566;9.980;2023-04-23T03:18:27;26.10;1.00
20463;DHT22;10390;53.566;9.980;2023-04-23T03:20:52;26.10;1.00
20463;DHT22;10390;53.566;9.980;2023-04-23T03:23:18;26.10;1.00
20463;DHT22;10390;53.566;9.980;2023-04-23T03:25:44;26.10;1.00
20463;DHT22;10390;53.566;9.980;2023-04-23T03:28:09;26.10;1.00
20463;DHT22;10390;53.566;9.980;2023-04-23T03:30:35;26.10;1.00
20463;DHT22;10390;53.566;9.980;2023-04-23T03:33:01;26.10;1.00
20463;DHT22;10390;53.566;9.980;2023-04-23T03:35:27;26.10;1.00
20463;DHT22;10390;53.566;9.980;2023-04-23T03:37:53;26.10;1.00
20463;DHT22;10390;53.566;9.980;2023-04-23T03:40:20;26.10;1.00
20463;DHT22;10390;53.566;9.980;2023-04-23T03:42:46;26.00;1.00
20463;DHT22;10390;53.566;9.980;2023-04-23T03:45:11;26.10;1.00
20463;DHT22;10390;53.566;9.980;2023-04-23T03:47:41;26.10;1.00
20463;DHT22;10390;53.566;9.980;2023-04-23T03:50:07;26.00;1.00
20463;DHT22;10390;53.566;9.980;2023-04-23T03:52:34;26.00;1.00
20463;DHT22;10390;53.566;9.980;2023-04-23T03:54:59;26.00;1.00
20463;DHT22;10390;53.566;9.980;2023-04-23T03:57:25;26.00;1.00
20463;DHT22;10390;53.566;9.980;2023-04-23T03:59:51;26.00;1.00
20463;DHT22;10390;53.566;9.980;2023-04-23T04:02:16;26.00;1.00
20463;DHT22;10390;53.566;9.980;2023-04-23T04:04:42;26.00;1.00
20463;DHT22;10390;53.566;9.980;2023-04-23T04:07:10;26.00;1.00
20463;DHT22;10390;53.566;9.980;2023-04-23T04:09:37;26.00;1.00
20463;DHT22;10390;53.566;9.980;2023-04-23T04:12:03;26.00;1.00
20463;DHT22;10390;53.566;9.980;2023-04-23T04:14:30;26.00;1.00
20463;DHT22;10390;53.566;9.980;2023-04-23T04:16:56;26.00;1.00
20463;DHT22;10390;53.566;9.980;2023-04-23T04:19:22;26.00;1.00
20463;DHT22;10390;53.566;9.980;2023-04-23T04:21:48;26.00;1.00
20463;DHT22;10390;53.566;9.980;2023-04-23T04:24:13;26.00;1.00
20463;DHT22;10390;53.566;9.980;2023-04-23T04:26:39;26.00;1.00
20463;DHT22;10390;53.566;9.980;2023-04-23T04:29:05;26.00;1.00
20463;DHT22;10390;53.566;9.980;2023-04-23T04:31:31;25.90;1.00
20463;DHT22;10390;53.566;9.980;2023-04-23T04:33:57;26.00;1.00
20463;DHT22;10390;53.566;9.980;2023-04-23T04:36:23;26.00;1.00
20463;DHT22;10390;53.566;9.980;2023-04-23T04:38:51;25.90;1.00
20463;DHT22;10390;53.566;9.980;2023-04-23T04:41:20;26.00;1.00
20463;DHT22;10390;53.566;9.980;2023-04-23T04:43:47;25.90;1.00
20463;DHT22;10390;53.566;9.980;2023-04-23T04:46:13;25.90;1.00
20463;DHT22;10390;53.566;9.980;2023-04-23T04:48:39;26.00;1.00
20463;DHT22;10390;53.566;9.980;2023-04-23T04:51:05;25.90;1.00
20463;DHT22;10390;53.566;9.980;2023-04-23T04:53:31;25.90;1.00
20463;DHT22;10390;53.566;9.980;2023-04-23T04:55:57;25.90;1.00
20463;DHT22;10390;53.566;9.980;2023-04-23T04:58:22;25.90;1.00
20463;DHT22;10390;53.566;9.980;2023-04-23T05:00:48;25.90;1.00
20463;DHT22;10390;53.566;9.980;2023-04-23T05:03:17;25.90;1.00
20463;DHT22;10390;53.566;9.980;2023-04-23T05:05:43;25.90;1.00
20463;DHT22;10390;53.566;9.980;2023-04-23T05:08:09;25.90;1.00
20463;DHT22;10390;53.566;9.980;2023-04-23T05:10:35;25.90;1.00
20463;DHT22;10390;53.566;9.980;2023-04-23T05:13:01;25.90;1.00
20463;DHT22;10390;53.566;9.980;2023-04-23T05:15:27;25.90;1.00
20463;DHT22;10390;53.566;9.980;2023-04-23T05:17:53;25.90;1.00
20463;DHT22;10390;53.566;9.980;2023-04-23T05:20:19;25.90;1.00
20463;DHT22;10390;53.566;9.980;2023-04-23T05:22:45;25.90;1.00
20463;DHT22;10390;53.566;9.980;2023-04-23T05:25:11;25.90;1.00
20463;DHT22;10390;53.566;9.980;2023-04-23T05:27:37;25.80;1.00
20463;DHT22;10390;53.566;9.980;2023-04-23T05:30:05;25.80;1.00
20463;DHT22;10390;53.566;9.980;2023-04-23T05:32:31;25.80;1.00
20463;DHT22;10390;53.566;9.980;2023-04-23T05:34:57;25.90;1.00
20463;DHT22;10390;53.566;9.980;2023-04-23T05:37:24;25.90;1.00
20463;DHT22;10390;53.566;9.980;2023-04-23T05:39:50;25.80;1.00
20463;DHT22;10390;53.566;9.980;2023-04-23T05:42:15;25.80;1.00
20463;DHT22;10390;53.566;9.980;2023-04-23T05:44:41;25.80;1.00
20463;DHT22;10390;53.566;9.980;2023-04-23T05:47:07;25.80;1.00
20463;DHT22;10390;53.566;9.980;2023-04-23T05:49:33;25.80;1.00
20463;DHT22;10390;53.566;9.980;2023-04-23T05:51:59;25.80;1.00
20463;DHT22;10390;53.566;9.980;2023-04-23T05:54:27;25.80;1.00
20463;DHT22;10390;53.566;9.980;2023-04-23T05:56:52;25.80;1.00
20463;DHT22;10390;53.566;9.980;2023-04-23T05:59:18;25.80;1.00
20463;DHT22;10390;53.566;9.980;2023-04-23T06:01:44;25.80;1.00
20463;DHT22;10390;53.566;9.980;2023-04-23T06:04:09;25.80;1.00
20463;DHT22;10390;53.566;9.980;2023-04-23T06:06:35;25.80;1.00
20463;DHT22;10390;53.566;9.980;2023-04-23T06:09:01;25.80;1.00
20463;DHT22;10390;53.566;9.980;2023-04-23T06:11:53;25.80;1.00
20463;DHT22;10390;53.566;9.980;2023-04-23T06:14:19;25.80;1.00
20463;DHT22;10390;53.566;9.980;2023-04-23T06:16:45;25.80;1.00
20463;DHT22;10390;53.566;9.980;2023-04-23T06:19:11;25.80;1.00
20463;DHT22;10390;53.566;9.980;2023-04-23T06:21:36;25.80;1.00
20463;DHT22;10390;53.566;9.980;2023-04-23T06:24:02;25.80;1.00
20463;DHT22;10390;53.566;9.980;2023-04-23T06:26:28;25.80;1.00
20463;DHT22;10390;53.566;9.980;2023-04-23T06:28:53;25.80;1.00
20463;DHT22;10390;53.566;9.980;2023-04-23T06:31:19;25.80;1.00
20463;DHT22;10390;53.566;9.980;2023-04-23T06:33:45;25.80;1.00
20463;DHT22;10390;53.566;9.980;2023-04-23T06:36:10;25.80;1.00
20463;DHT22;10390;53.566;9.980;2023-04-23T06:38:37;25.80;1.00
20463;DHT22;10390;53.566;9.980;2023-04-23T06:41:03;25.80;1.00
20463;DHT22;10390;53.566;9.980;2023-04-23T06:43:29;25.80;1.00
20463;DHT22;10390;53.566;9.980;2023-04-23T06:45:55;25.90;1.00
20463;DHT22;10390;53.566;9.980;2023-04-23T06:48:21;25.90;1.00
20463;DHT22;10390;53.566;9.980;2023-04-23T06:50:47;25.90;1.00
20463;DHT22;10390;53.566;9.980;2023-04-23T06:53:13;25.90;1.00
20463;DHT22;10390;53.566;9.980;2023-04-23T06:55:38;25.80;1.00
20463;DHT22;10390;53.566;9.980;2023-04-23T06:58:04;25.80;1.00
20463;DHT22;10390;53.566;9.980;2023-04-23T07:00:32;25.90;1.00
20463;DHT22;10390;53.566;9.980;2023-04-23T07:02:58;25.90;1.00
20463;DHT22;10390;53.566;9.980;2023-04-23T07:05:24;25.90;1.00
20463;DHT22;10390;53.566;9.980;2023-04-23T07:07:50;25.90;1.00
20463;DHT22;10390;53.566;9.980;2023-04-23T07:10:15;25.90;1.00
20463;DHT22;10390;53.566;9.980;2023-04-23T07:12:41;25.90;1.00
20463;DHT22;10390;53.566;9.980;2023-04-23T07:15:07;25.90;1.00
20463;DHT22;10390;53.566;9.980;2023-04-23T07:17:33;25.90;1.00
20463;DHT22;10390;53.566;9.980;2023-04-23T07:19:59;25.90;1.00
20463;DHT22;10390;53.566;9.980;2023-04-23T07:22:25;25.90;1.00
20463;DHT22;10390;53.566;9.980;2023-04-23T07:24:53;25.90;1.00
20463;DHT22;10390;53.566;9.980;2023-04-23T07:27:19;25.90;1.00
20463;DHT22;10390;53.566;9.980;2023-04-23T07:29:45;25.90;1.00
20463;DHT22;10390;53.566;9.980;2023-04-23T07:32:13;25.90;1.00
20463;DHT22;10390;53.566;9.980;2023-04-23T07:34:39;25.90;1.00
20463;DHT22;10390;53.566;9.980;2023-04-23T07:37:06;25.90;1.00
20463;DHT22;10390;53.566;9.980;2023-04-23T07:39:32;26.00;1.00
20463;DHT22;10390;53.566;9.980;2023-04-23T07:41:58;26.00;1.00
20463;DHT22;10390;53.566;9.980;2023-04-23T07:44:24;26.00;1.00
20463;DHT22;10390;53.566;9.980;2023-04-23T07:46:50;26.10;1.00
20463;DHT22;10390;53.566;9.980;2023-04-23T07:49:16;26.10;1.00
20463;DHT22;10390;53.566;9.980;2023-04-23T07:51:42;26.10;1.00
20463;DHT22;10390;53.566;9.980;2023-04-23T07:54:08;26.10;1.00
20463;DHT22;10390;53.566;9.980;2023-04-23T07:56:34;26.10;1.00
20463;DHT22;10390;53.566;9.980;2023-04-23T07:59:00;26.10;1.00
20463;DHT22;10390;53.566;9.980;2023-04-23T08:01:27;26.00;1.00
20463;DHT22;10390;53.566;9.980;2023-04-23T08:03:53;26.10;1.00
20463;DHT22;10390;53.566;9.980;2023-04-23T08:06:21;26.00;1.00
20463;DHT22;10390;53.566;9.980;2023-04-23T08:08:48;26.10;1.00
20463;DHT22;10390;53.566;9.980;2023-04-23T08:11:14;26.10;1.00
20463;DHT22;10390;53.566;9.980;2023-04-23T08:13:41;26.10;1.00
20463;DHT22;10390;53.566;9.980;2023-04-23T08:16:07;26.00;1.00
20463;DHT22;10390;53.566;9.980;2023-04-23T08:18:32;26.10;1.00
20463;DHT22;10390;53.566;9.980;2023-04-23T08:20:58;26.10;1.00
20463;DHT22;10390;53.566;9.980;2023-04-23T08:23:24;26.00;1.00
20463;DHT22;10390;53.566;9.980;2023-04-23T08:25:50;26.10;1.00
20463;DHT22;10390;53.566;9.980;2023-04-23T08:28:17;26.00;1.00
20463;DHT22;10390;53.566;9.980;2023-04-23T08:30:42;26.10;1.00
20463;DHT22;10390;53.566;9.980;2023-04-23T08:33:08;26.10;1.00
20463;DHT22;10390;53.566;9.980;2023-04-23T08:35:33;26.10;1.00
20463;DHT22;10390;53.566;9.980;2023-04-23T08:37:59;26.10;1.00
20463;DHT22;10390;53.566;9.980;2023-04-23T08:40:29;26.10;1.00
20463;DHT22;10390;53.566;9.980;2023-04-23T08:43:02;26.10;1.00
20463;DHT22;10390;53.566;9.980;2023-04-23T08:45:31;26.10;1.00
20463;DHT22;10390;53.566;9.980;2023-04-23T08:47:59;26.10;1.00
20463;DHT22;10390;53.566;9.980;2023-04-23T08:50:25;26.10;1.00
20463;DHT22;10390;53.566;9.980;2023-04-23T08:52:54;26.10;1.00
20463;DHT22;10390;53.566;9.980;2023-04-23T08:55:21;26.10;1.00
20463;DHT22;10390;53.566;9.980;2023-04-23T08:57:48;26.10;1.00
20463;DHT22;10390;53.566;9.980;2023-04-23T09:00:16;26.10;1.00
20463;DHT22;10390;53.566;9.980;2023-04-23T09:02:44;26.10;1.00
20463;DHT22;10390;53.566;9.980;2023-04-23T09:05:10;26.20;1.00
20463;DHT22;10390;53.566;9.980;2023-04-23T09:07:36;26.10;1.00
20463;DHT22;10390;53.566;9.980;2023-04-23T09:10:03;26.20;1.00
20463;DHT22;10390;53.566;9.980;2023-04-23T09:12:30;26.20;1.00
20463;DHT22;10390;53.566;9.980;2023-04-23T09:14:56;26.20;1.00
20463;DHT22;10390;53.566;9.980;2023-04-23T09:17:22;26.30;1.00
20463;DHT22;10390;53.566;9.980;2023-04-23T09:19:53;26.30;1.00
20463;DHT22;10390;53.566;9.980;2023-04-23T09:25:08;26.30;1.00
20463;DHT22;10390;53.566;9.980;2023-04-23T09:27:34;26.30;1.00
20463;DHT22;10390;53.566;9.980;2023-04-23T09:30:05;26.30;1.00
20463;DHT22;10390;53.566;9.980;2023-04-23T09:32:33;26.40;1.00
20463;DHT22;10390;53.566;9.980;2023-04-23T09:35:07;26.40;1.00
20463;DHT22;10390;53.566;9.980;2023-04-23T09:37:34;26.40;1.00
20463;DHT22;10390;53.566;9.980;2023-04-23T09:40:06;26.40;1.00
20463;DHT22;10390;53.566;9.980;2023-04-23T09:42:35;26.40;1.00
20463;DHT22;10390;53.566;9.980;2023-04-23T09:45:06;26.40;1.00
20463;DHT22;10390;53.566;9.980;2023-04-23T09:47:33;26.40;1.00
20463;DHT22;10390;53.566;9.980;2023-04-23T09:50:00;26.40;1.00
20463;DHT22;10390;53.566;9.980;2023-04-23T09:52:26;26.40;1.00
20463;DHT22;10390;53.566;9.980;2023-04-23T09:54:55;26.50;1.00
20463;DHT22;10390;53.566;9.980;2023-04-23T09:57:24;26.50;1.00
20463;DHT22;10390;53.566;9.980;2023-04-23T09:59:50;26.50;1.00
20463;DHT22;10390;53.566;9.980;2023-04-23T10:02:15;26.50;1.00
20463;DHT22;10390;53.566;9.980;2023-04-23T10:04:42;26.60;1.00
20463;DHT22;10390;53.566;9.980;2023-04-23T10:07:07;26.60;1.00
20463;DHT22;10390;53.566;9.980;2023-04-23T10:09:38;26.60;1.00
20463;DHT22;10390;53.566;9.980;2023-04-23T10:12:04;26.60;1.00
20463;DHT22;10390;53.566;9.980;2023-04-23T10:14:31;26.70;1.00
20463;DHT22;10390;53.566;9.980;2023-04-23T10:17:01;26.70;1.00
20463;DHT22;10390;53.566;9.980;2023-04-23T10:19:28;26.70;1.00
20463;DHT22;10390;53.566;9.980;2023-04-23T10:21:56;26.70;1.00
20463;DHT22;10390;53.566;9.980;2023-04-23T10:24:23;26.80;1.00
20463;DHT22;10390;53.566;9.980;2023-04-23T10:26:51;26.70;1.00
20463;DHT22;10390;53.566;9.980;2023-04-23T10:29:22;26.80;1.00
20463;DHT22;10390;53.566;9.980;2023-04-23T10:31:52;26.80;1.00
20463;DHT22;10390;53.566;9.980;2023-04-23T10:34:19;26.80;1.00
20463;DHT22;10390;53.566;9.980;2023-04-23T10:36:45;26.80;1.00
20463;DHT22;10390;53.566;9.980;2023-04-23T10:39:12;26.80;1.00
20463;DHT22;10390;53.566;9.980;2023-04-23T10:41:40;26.90;1.00
20463;DHT22;10390;53.566;9.980;2023-04-23T10:44:11;26.90;1.00
20463;DHT22;10390;53.566;9.980;2023-04-23T10:46:37;26.90;1.00
20463;DHT22;10390;53.566;9.980;2023-04-23T10:49:13;26.90;1.00
20463;DHT22;10390;53.566;9.980;2023-04-23T10:51:40;26.90;1.00
20463;DHT22;10390;53.566;9.980;2023-04-23T10:54:09;26.90;1.00
20463;DHT22;10390;53.566;9.980;2023-04-23T10:56:38;26.90;1.00
20463;DHT22;10390;53.566;9.980;2023-04-23T10:59:18;27.00;1.00
20463;DHT22;10390;53.566;9.980;2023-04-23T11:01:49;27.00;1.00
20463;DHT22;10390;53.566;9.980;2023-04-23T11:04:31;27.00;1.00
20463;DHT22;10390;53.566;9.980;2023-04-23T11:12:04;27.00;1.00
20463;DHT22;10390;53.566;9.980;2023-04-23T11:17:06;27.10;1.00
20463;DHT22;10390;53.566;9.980;2023-04-23T11:19:37;27.10;1.00
20463;DHT22;10390;53.566;9.980;2023-04-23T11:22:13;27.10;1.00
20463;DHT22;10390;53.566;9.980;2023-04-23T11:24:41;27.10;1.00
20463;DHT22;10390;53.566;9.980;2023-04-23T11:27:17;27.10;1.00
20463;DHT22;10390;53.566;9.980;2023-04-23T11:29:45;27.10;1.00
20463;DHT22;10390;53.566;9.980;2023-04-23T11:32:15;27.20;1.00
20463;DHT22;10390;53.566;9.980;2023-04-23T11:34:42;27.20;1.00
20463;DHT22;10390;53.566;9.980;2023-04-23T11:37:12;27.10;1.00
20463;DHT22;10390;53.566;9.980;2023-04-23T11:39:40;27.20;1.00
20463;DHT22;10390;53.566;9.980;2023-04-23T11:42:14;27.20;1.00
20463;DHT22;10390;53.566;9.980;2023-04-23T11:44:42;27.20;1.00
20463;DHT22;10390;53.566;9.980;2023-04-23T11:47:09;27.20;1.00
20463;DHT22;10390;53.566;9.980;2023-04-23T11:49:39;27.20;1.00
20463;DHT22;10390;53.566;9.980;2023-04-23T11:52:06;27.20;1.00
20463;DHT22;10390;53.566;9.980;2023-04-23T11:54:32;27.20;1.00
20463;DHT22;10390;53.566;9.980;2023-04-23T11:56:59;27.30;1.00
20463;DHT22;10390;53.566;9.980;2023-04-23T11:59:25;27.30;1.00
20463;DHT22;10390;53.566;9.980;2023-04-23T12:01:54;27.20;1.00
20463;DHT22;10390;53.566;9.980;2023-04-23T12:04:22;27.30;1.00
20463;DHT22;10390;53.566;9.980;2023-04-23T12:06:49;27.20;1.00
20463;DHT22;10390;53.566;9.980;2023-04-23T12:09:16;27.30;1.00
20463;DHT22;10390;53.566;9.980;2023-04-23T12:11:43;27.30;1.00
20463;DHT22;10390;53.566;9.980;2023-04-23T12:14:11;27.30;1.00
20463;DHT22;10390;53.566;9.980;2023-04-23T12:16:45;27.30;1.00
20463;DHT22;10390;53.566;9.980;2023-04-23T12:19:20;27.30;1.00
20463;DHT22;10390;53.566;9.980;2023-04-23T12:21:59;27.30;1.00
20463;DHT22;10390;53.566;9.980;2023-04-23T12:24:26;27.30;1.00
20463;DHT22;10390;53.566;9.980;2023-04-23T12:26:57;27.30;1.00
20463;DHT22;10390;53.566;9.980;2023-04-23T12:29:23;27.30;1.00
20463;DHT22;10390;53.566;9.980;2023-04-23T12:31:50;27.30;1.00
20463;DHT22;10390;53.566;9.980;2023-04-23T12:34:17;27.30;1.00
20463;DHT22;10390;53.566;9.980;2023-04-23T12:36:48;27.30;1.00
20463;DHT22;10390;53.566;9.980;2023-04-23T12:41:57;27.20;1.00
20463;DHT22;10390;53.566;9.980;2023-04-23T12:44:25;27.30;1.00
20463;DHT22;10390;53.566;9.980;2023-04-23T12:46:59;27.20;1.00
20463;DHT22;10390;53.566;9.980;2023-04-23T12:49:28;27.30;1.00
20463;DHT22;10390;53.566;9.980;2023-04-23T12:51:54;27.30;1.00
20463;DHT22;10390;53.566;9.980;2023-04-23T12:54:32;27.30;1.00
20463;DHT22;10390;53.566;9.980;2023-04-23T12:56:59;27.30;1.00
20463;DHT22;10390;53.566;9.980;2023-04-23T12:59:27;27.20;1.00
20463;DHT22;10390;53.566;9.980;2023-04-23T13:01:52;27.30;1.00
20463;DHT22;10390;53.566;9.980;2023-04-23T13:04:18;27.20;1.00
20463;DHT22;10390;53.566;9.980;2023-04-23T13:06:44;27.20;1.00
20463;DHT22;10390;53.566;9.980;2023-04-23T13:09:10;27.20;1.00
20463;DHT22;10390;53.566;9.980;2023-04-23T13:11:37;27.20;1.00
20463;DHT22;10390;53.566;9.980;2023-04-23T13:14:04;27.20;1.00
20463;DHT22;10390;53.566;9.980;2023-04-23T13:16:30;27.20;1.00
20463;DHT22;10390;53.566;9.980;2023-04-23T13:18:56;27.20;1.00
20463;DHT22;10390;53.566;9.980;2023-04-23T13:21:22;27.20;1.00
20463;DHT22;10390;53.566;9.980;2023-04-23T13:23:48;27.20;1.00
20463;DHT22;10390;53.566;9.980;2023-04-23T13:26:14;27.20;1.00
20463;DHT22;10390;53.566;9.980;2023-04-23T13:28:39;27.20;1.00
20463;DHT22;10390;53.566;9.980;2023-04-23T13:31:05;27.20;1.00
20463;DHT22;10390;53.566;9.980;2023-04-23T13:33:32;27.20;1.00
20463;DHT22;10390;53.566;9.980;2023-04-23T13:36:01;27.20;1.00
20463;DHT22;10390;53.566;9.980;2023-04-23T13:38:27;27.10;1.00
20463;DHT22;10390;53.566;9.980;2023-04-23T13:40:53;27.10;1.00
20463;DHT22;10390;53.566;9.980;2023-04-23T13:43:18;27.10;1.00
20463;DHT22;10390;53.566;9.980;2023-04-23T13:45:45;27.10;1.00
20463;DHT22;10390;53.566;9.980;2023-04-23T13:48:14;27.10;1.00
20463;DHT22;10390;53.566;9.980;2023-04-23T13:50:41;27.10;1.00
20463;DHT22;10390;53.566;9.980;2023-04-23T13:53:08;27.10;1.00
20463;DHT22;10390;53.566;9.980;2023-04-23T13:55:35;27.10;1.00
20463;DHT22;10390;53.566;9.980;2023-04-23T13:58:01;27.10;1.00
20463;DHT22;10390;53.566;9.980;2023-04-23T14:00:27;27.10;1.00
20463;DHT22;10390;53.566;9.980;2023-04-23T14:02:53;27.10;1.00
20463;DHT22;10390;53.566;9.980;2023-04-23T14:05:19;27.10;1.00
20463;DHT22;10390;53.566;9.980;2023-04-23T14:07:45;27.10;1.00
20463;DHT22;10390;53.566;9.980;2023-04-23T14:10:11;27.10;1.00
20463;DHT22;10390;53.566;9.980;2023-04-23T14:12:37;27.10;1.00
20463;DHT22;10390;53.566;9.980;2023-04-23T14:15:07;27.10;1.00
20463;DHT22;10390;53.566;9.980;2023-04-23T14:17:33;27.10;1.00
20463;DHT22;10390;53.566;9.980;2023-04-23T14:19:59;27.10;1.00
20463;DHT22;10390;53.566;9.980;2023-04-23T14:22:25;27.10;1.00
20463;DHT22;10390;53.566;9.980;2023-04-23T14:24:55;27.00;1.00
20463;DHT22;10390;53.566;9.980;2023-04-23T14:27:22;27.00;1.00
20463;DHT22;10390;53.566;9.980;2023-04-23T14:29:56;27.10;1.00
20463;DHT22;10390;53.566;9.980;2023-04-23T14:32:22;27.10;1.00
20463;DHT22;10390;53.566;9.980;2023-04-23T14:34:48;27.00;1.00
20463;DHT22;10390;53.566;9.980;2023-04-23T14:37:14;27.00;1.00
20463;DHT22;10390;53.566;9.980;2023-04-23T14:39:41;27.00;1.00
20463;DHT22;10390;53.566;9.980;2023-04-23T14:42:07;27.00;1.00
20463;DHT22;10390;53.566;9.980;2023-04-23T14:44:33;27.00;1.00
20463;DHT22;10390;53.566;9.980;2023-04-23T14:46:58;27.00;1.00
20463;DHT22;10390;53.566;9.980;2023-04-23T14:49:24;27.00;1.00
20463;DHT22;10390;53.566;9.980;2023-04-23T14:51:50;27.00;1.00
20463;DHT22;10390;53.566;9.980;2023-04-23T14:54:19;27.00;1.00
20463;DHT22;10390;53.566;9.980;2023-04-23T14:56:45;27.00;1.00
20463;DHT22;10390;53.566;9.980;2023-04-23T14:59:11;27.00;1.00
20463;DHT22;10390;53.566;9.980;2023-04-23T15:01:36;27.00;1.00
20463;DHT22;10390;53.566;9.980;2023-04-23T15:04:02;27.00;1.00
20463;DHT22;10390;53.566;9.980;2023-04-23T15:06:28;27.00;1.00
20463;DHT22;10390;53.566;9.980;2023-04-23T15:08:54;27.00;1.00
20463;DHT22;10390;53.566;9.980;2023-04-23T15:11:19;27.00;1.00
20463;DHT22;10390;53.566;9.980;2023-04-23T15:16:31;26.90;1.00
20463;DHT22;10390;53.566;9.980;2023-04-23T15:18:59;27.00;1.00
20463;DHT22;10390;53.566;9.980;2023-04-23T15:21:25;26.90;1.00
20463;DHT22;10390;53.566;9.980;2023-04-23T15:23:51;26.90;1.00
20463;DHT22;10390;53.566;9.980;2023-04-23T15:26:18;26.90;1.00
20463;DHT22;10390;53.566;9.980;2023-04-23T15:28:44;26.90;1.00
20463;DHT22;10390;53.566;9.980;2023-04-23T15:31:10;26.90;1.00
20463;DHT22;10390;53.566;9.980;2023-04-23T15:33:35;26.90;1.00
20463;DHT22;10390;53.566;9.980;2023-04-23T15:36:01;26.90;1.00
20463;DHT22;10390;53.566;9.980;2023-04-23T15:38:27;26.90;1.00
20463;DHT22;10390;53.566;9.980;2023-04-23T15:40:55;26.90;1.00
20463;DHT22;10390;53.566;9.980;2023-04-23T15:43:20;26.90;1.00
20463;DHT22;10390;53.566;9.980;2023-04-23T15:45:46;26.90;1.00
20463;DHT22;10390;53.566;9.980;2023-04-23T15:48:13;26.90;1.00
20463;DHT22;10390;53.566;9.980;2023-04-23T15:50:40;26.90;1.00
20463;DHT22;10390;53.566;9.980;2023-04-23T15:53:06;26.90;1.00
20463;DHT22;10390;53.566;9.980;2023-04-23T15:55:32;26.90;1.00
20463;DHT22;10390;53.566;9.980;2023-04-23T15:57:59;26.90;1.00